Sidmouth, United Kingdom
Current Conditions -  °F | °C
As of 3:50 PM on Sunday 23 Nov 2014 (Local Time) from EGTE Reporting Station
Few Clouds Few Clouds  
Wind Chill: 44°   Ceiling: Unl
Heat Index: 48°   Visibility: 6mi
Dew Point: 41°   Wind: 9mph
Humidity: 76%   Direction: 330°NNW
Pressure: 30.09"   Gusts: NA
Location:  50.69°N, 3.24°W
Report Text: EGTE 231550Z 33008KT 9999 FEW025 09/05 Q1019
Loading
Personal Weather Stations






























Interactive Weather Map New forecast layout! Learn more

10-Day Weather Forecast

Advertisements
Track Severe Weather on mobile